Time;durP1;ratioP1;P1;durP2;ratioP2;P2;SDS_P1;SDS_P2;PMS_P1;PMS_P2;Temp;Humidity;BMP_temperature;BMP_pressure;BME280_temperature;BME280_humidity;BME280_pressure;Samples;Min_cycle;Max_cycle;Signal;HPM_P1;HPM_P2
2023/05/26 00:00:52;;;;;;;12.48;8.68;;;13.00;99.90;;;;;;2104862;28;20111;-70
2023/05/26 00:01:53;;;;;;;13.90;9.20;;;13.00;99.90;;;;;;2093795;28;20032;-71
2023/05/26 00:02:54;;;;;;;15.27;9.20;;;13.00;99.90;;;;;;2087527;28;20119;-70
2023/05/26 00:03:56;;;;;;;12.00;8.40;;;13.00;99.90;;;;;;2095604;28;20044;-70
2023/05/26 00:04:58;;;;;;;11.70;8.80;;;13.00;99.90;;;;;;2095589;28;20041;-71
2023/05/26 00:05:58;;;;;;;11.70;8.70;;;13.00;99.90;;;;;;2095927;28;20044;-72
2023/05/26 00:06:59;;;;;;;12.55;8.82;;;12.90;99.90;;;;;;2087619;28;20036;-72
2023/05/26 00:07:59;;;;;;;13.25;8.80;;;12.90;99.90;;;;;;2090341;28;20028;-71
2023/05/26 00:09:01;;;;;;;14.23;9.27;;;12.90;99.90;;;;;;2104712;28;20040;-72
2023/05/26 00:10:01;;;;;;;11.30;8.80;;;12.90;99.90;;;;;;2087544;28;20561;-71
2023/05/26 00:11:02;;;;;;;13.15;9.05;;;12.90;99.90;;;;;;2087367;28;20040;-71
2023/05/26 00:12:02;;;;;;;11.60;8.40;;;12.90;99.90;;;;;;2100206;28;20028;-71
2023/05/26 00:13:03;;;;;;;14.40;8.80;;;12.90;99.90;;;;;;2103206;28;20039;-71
2023/05/26 00:14:04;;;;;;;11.57;8.85;;;12.80;99.90;;;;;;2104763;28;20526;-71
2023/05/26 00:15:06;;;;;;;11.70;8.48;;;12.90;99.90;;;;;;2104719;28;20020;-72
2023/05/26 00:16:07;;;;;;;11.38;8.90;;;12.80;99.90;;;;;;2104652;28;20020;-72
2023/05/26 00:17:08;;;;;;;12.32;8.70;;;12.80;99.90;;;;;;2095388;28;20032;-72
2023/05/26 00:18:09;;;;;;;13.77;8.95;;;12.80;99.90;;;;;;2103899;28;20450;-71
2023/05/26 00:19:11;;;;;;;13.85;9.18;;;12.80;99.90;;;;;;2096016;28;20052;-72
2023/05/26 00:20:12;;;;;;;13.68;9.27;;;12.80;99.90;;;;;;2079025;28;20034;-72
2023/05/26 00:21:13;;;;;;;12.73;9.07;;;12.80;99.90;;;;;;2087291;28;20017;-72
2023/05/26 00:22:15;;;;;;;12.27;9.60;;;12.80;99.90;;;;;;2102498;28;20062;-72
2023/05/26 00:23:16;;;;;;;12.10;8.80;;;12.80;99.90;;;;;;2104073;28;20032;-72
2023/05/26 00:24:16;;;;;;;14.73;9.52;;;12.80;99.90;;;;;;2104630;28;20031;-72
2023/05/26 00:25:17;;;;;;;17.67;9.50;;;12.80;99.90;;;;;;2104518;28;20032;-72
2023/05/26 00:26:17;;;;;;;11.50;8.88;;;12.70;99.90;;;;;;2093669;28;20078;-72
2023/05/26 00:27:22;;;;;;;12.77;8.70;;;12.80;99.90;;;;;;2087964;28;20059;-72
2023/05/26 00:28:23;;;;;;;14.27;9.55;;;12.70;99.90;;;;;;2087397;28;20024;-72
2023/05/26 00:29:24;;;;;;;11.82;8.93;;;12.70;99.90;;;;;;2095594;28;20031;-71
2023/05/26 00:30:24;;;;;;;13.00;8.55;;;12.80;99.90;;;;;;2104317;28;20039;-72
2023/05/26 00:31:25;;;;;;;11.52;8.98;;;12.70;99.90;;;;;;2102606;28;20028;-72
2023/05/26 00:32:25;;;;;;;15.13;9.40;;;12.70;99.90;;;;;;2104693;28;20036;-72
2023/05/26 00:33:26;;;;;;;16.08;9.52;;;12.70;99.90;;;;;;2095576;28;20040;-72
2023/05/26 00:34:27;;;;;;;13.90;9.45;;;12.70;99.90;;;;;;2095328;28;20040;-71
2023/05/26 00:35:27;;;;;;;13.95;8.90;;;12.70;99.90;;;;;;2104400;28;20032;-72
2023/05/26 00:36:28;;;;;;;14.65;9.45;;;12.70;99.90;;;;;;2102564;28;20073;-72
2023/05/26 00:37:28;;;;;;;13.60;9.35;;;12.70;99.90;;;;;;2105041;28;20115;-72
2023/05/26 00:38:29;;;;;;;17.35;9.85;;;12.70;99.90;;;;;;2104405;28;20036;-72
2023/05/26 00:39:30;;;;;;;12.93;9.00;;;12.70;99.90;;;;;;2104590;28;20199;-72
2023/05/26 00:40:32;;;;;;;15.55;9.27;;;12.70;99.90;;;;;;2095531;28;20066;-72
2023/05/26 00:41:33;;;;;;;15.40;9.23;;;12.70;99.90;;;;;;2093972;28;20079;-71
2023/05/26 00:42:34;;;;;;;13.55;9.20;;;12.60;99.90;;;;;;2095721;28;20052;-71
2023/05/26 00:43:34;;;;;;;14.75;10.07;;;12.60;99.90;;;;;;2095057;28;20498;-72
2023/05/26 00:44:35;;;;;;;15.18;9.60;;;12.60;99.90;;;;;;2092909;28;20101;-71
2023/05/26 00:45:36;;;;;;;14.98;9.73;;;12.60;99.90;;;;;;2096184;28;20067;-71
2023/05/26 00:46:37;;;;;;;14.27;9.82;;;12.60;99.90;;;;;;2092947;28;20140;-71
2023/05/26 00:47:37;;;;;;;15.02;9.50;;;12.60;99.90;;;;;;2098918;28;20078;-71
2023/05/26 00:48:38;;;;;;;12.40;9.48;;;12.50;99.90;;;;;;2105901;28;20053;-71
2023/05/26 00:49:39;;;;;;;14.70;9.80;;;12.50;99.90;;;;;;2097260;28;20039;-71
2023/05/26 00:50:41;;;;;;;16.33;9.60;;;12.50;99.90;;;;;;2095378;28;20048;-71
2023/05/26 00:51:44;;;;;;;13.18;9.55;;;12.50;99.90;;;;;;2093695;28;20028;-71
2023/05/26 00:52:45;;;;;;;14.13;9.75;;;12.50;99.90;;;;;;2104136;28;20024;-71
2023/05/26 00:53:46;;;;;;;13.50;9.57;;;12.40;99.90;;;;;;2094993;28;20395;-71
2023/05/26 00:54:47;;;;;;;13.93;9.27;;;12.40;99.90;;;;;;2087043;28;20025;-71
2023/05/26 00:55:51;;;;;;;14.25;9.23;;;12.40;99.90;;;;;;2079207;28;20042;-71
2023/05/26 00:56:54;;;;;;;14.77;10.02;;;12.40;99.90;;;;;;2098103;28;20784;-71
2023/05/26 00:57:56;;;;;;;13.88;9.95;;;12.40;99.90;;;;;;2095558;28;20491;-71
2023/05/26 00:58:57;;;;;;;12.23;9.30;;;12.30;99.90;;;;;;2095519;28;20119;-71
2023/05/26 00:59:58;;;;;;;13.30;9.95;;;12.40;99.90;;;;;;2112792;28;20035;-71
2023/05/26 01:00:59;;;;;;;14.93;10.15;;;12.30;99.90;;;;;;2103694;28;20038;-70
2023/05/26 01:02:00;;;;;;;14.50;10.10;;;12.40;99.90;;;;;;2095742;28;20094;-70
2023/05/26 01:03:03;;;;;;;15.32;9.77;;;12.30;99.90;;;;;;2094616;28;20040;-71
2023/05/26 01:04:04;;;;;;;12.63;9.30;;;12.30;99.90;;;;;;2087601;28;20021;-73
2023/05/26 01:05:06;;;;;;;13.07;9.52;;;12.30;99.90;;;;;;2103564;28;20540;-70
2023/05/26 01:06:07;;;;;;;14.23;10.07;;;12.30;99.90;;;;;;2103647;28;20130;-70
2023/05/26 01:07:08;;;;;;;15.07;9.55;;;12.30;99.90;;;;;;2094183;28;20037;-71
2023/05/26 01:08:09;;;;;;;14.02;9.95;;;12.30;99.90;;;;;;2099148;28;20505;-70
2023/05/26 01:09:13;;;;;;;15.32;9.80;;;12.20;99.90;;;;;;2102967;28;20032;-70
2023/05/26 01:10:14;;;;;;;13.18;9.60;;;12.30;99.90;;;;;;2103429;28;20043;-71
2023/05/26 01:11:40;;;;;;;12.38;9.20;;;12.20;99.90;;;;;;2103429;28;20565;-70
2023/05/26 01:12:47;;;;;;;14.48;9.50;;;12.20;99.90;;;;;;2103341;28;20027;-71
2023/05/26 01:13:54;;;;;;;15.77;9.77;;;12.20;99.90;;;;;;2096415;28;20514;-72
2023/05/26 01:15:06;;;;;;;13.25;9.57;;;12.20;99.90;;;;;;2103277;28;20550;-71
2023/05/26 01:16:10;;;;;;;13.70;9.68;;;12.20;99.90;;;;;;2097065;28;20025;-71
2023/05/26 01:17:55;;;;;;;13.73;9.57;;;12.10;99.90;;;;;;2101506;28;20114;-71
2023/05/26 01:19:20;;;;;;;14.27;9.40;;;12.10;99.90;;;;;;2051795;28;20482;-70
2023/05/26 01:20:30;;;;;;;14.57;9.68;;;12.10;99.90;;;;;;2099892;28;20069;-70
2023/05/26 01:21:32;;;;;;;;;;;12.10;99.90;;;;;;2105291;28;20066;-70
2023/05/26 01:23:07;;;;;;;13.88;9.57;;;12.10;99.90;;;;;;2103815;28;19991;-71
2023/05/26 01:24:29;;;;;;;12.20;9.05;;;12.10;99.90;;;;;;2108013;28;20028;-71
2023/05/26 01:25:44;;;;;;;14.27;9.65;;;12.00;99.90;;;;;;2112832;28;20114;-71
2023/05/26 01:27:07;;;;;;;14.68;9.82;;;12.00;99.90;;;;;;2110914;28;20028;-71
2023/05/26 01:28:16;;;;;;;14.10;9.63;;;12.00;99.90;;;;;;2095407;28;20067;-72
2023/05/26 01:29:20;;;;;;;12.90;9.68;;;12.00;99.90;;;;;;2098021;28;20136;-70
2023/05/26 01:30:21;;;;;;;14.70;9.85;;;12.00;99.90;;;;;;2103605;28;20051;-70
2023/05/26 01:31:21;;;;;;;15.18;10.10;;;12.00;99.90;;;;;;2101790;28;20024;-71
2023/05/26 01:32:22;;;;;;;15.45;10.18;;;12.00;99.90;;;;;;2112603;28;20091;-71
2023/05/26 01:33:23;;;;;;;14.85;10.23;;;12.00;99.90;;;;;;2103094;28;20028;-70
2023/05/26 01:34:23;;;;;;;14.23;9.90;;;12.00;99.90;;;;;;2103488;28;20028;-70
2023/05/26 01:35:24;;;;;;;14.02;9.70;;;12.00;99.90;;;;;;2102885;28;20052;-70
2023/05/26 01:36:25;;;;;;;14.48;9.57;;;12.00;99.90;;;;;;2093135;28;20480;-70
2023/05/26 01:37:25;;;;;;;15.68;10.05;;;11.90;99.90;;;;;;2094988;28;20131;-71
2023/05/26 01:38:26;;;;;;;14.60;9.77;;;11.90;99.90;;;;;;2103490;28;20036;-70
2023/05/26 01:39:27;;;;;;;15.65;10.00;;;11.90;99.90;;;;;;2094982;28;20033;-70
2023/05/26 01:40:28;;;;;;;14.80;9.55;;;11.90;99.90;;;;;;2086919;28;20040;-71
2023/05/26 01:41:42;;;;;;;14.52;9.82;;;11.90;99.90;;;;;;2101029;28;20059;-71
2023/05/26 01:42:53;;;;;;;14.80;9.60;;;11.90;99.90;;;;;;2112382;28;20032;-71
2023/05/26 01:44:02;;;;;;;15.80;10.07;;;11.90;99.90;;;;;;2096159;28;20087;-71
2023/05/26 01:45:05;;;;;;;14.45;9.63;;;11.90;99.90;;;;;;2094948;28;20028;-71
2023/05/26 01:46:45;;;;;;;14.45;9.70;;;11.90;99.90;;;;;;2095082;28;20071;-71
2023/05/26 01:47:51;;;;;;;14.73;10.25;;;11.90;99.90;;;;;;2081123;28;20040;-70
2023/05/26 01:48:57;;;;;;;15.32;10.30;;;11.90;99.90;;;;;;2103891;28;20427;-69
2023/05/26 01:50:01;;;;;;;14.43;10.20;;;11.90;99.90;;;;;;2103899;28;20035;-70
2023/05/26 01:51:04;;;;;;;15.05;10.02;;;11.80;99.90;;;;;;2096141;28;20028;-71
2023/05/26 01:52:08;;;;;;;14.45;10.15;;;11.80;99.90;;;;;;2089340;28;20025;-70
2023/05/26 01:53:12;;;;;;;19.20;10.13;;;11.80;99.90;;;;;;2105676;28;20574;-71
2023/05/26 01:54:15;;;;;;;15.85;10.77;;;11.80;99.90;;;;;;2114856;28;20034;-71
2023/05/26 01:55:19;;;;;;;16.98;11.07;;;11.80;99.90;;;;;;2104799;28;20071;-71
2023/05/26 01:56:23;;;;;;;16.05;11.07;;;11.80;99.90;;;;;;2093518;28;20035;-71
2023/05/26 01:57:26;;;;;;;17.92;10.93;;;11.80;99.90;;;;;;2095031;28;20037;-71
2023/05/26 01:58:28;;;;;;;15.68;10.55;;;11.80;99.90;;;;;;2094539;28;20028;-71
2023/05/26 01:59:30;;;;;;;16.08;10.20;;;11.80;99.90;;;;;;2094526;28;20039;-71
2023/05/26 02:00:31;;;;;;;15.00;10.18;;;11.80;99.90;;;;;;2103153;28;20028;-71
2023/05/26 02:01:33;;;;;;;13.75;10.32;;;11.80;99.90;;;;;;2092979;28;20024;-73
2023/05/26 02:02:34;;;;;;;15.02;10.48;;;11.80;99.90;;;;;;2103858;28;20568;-76
2023/05/26 02:03:35;;;;;;;15.10;10.55;;;11.80;99.90;;;;;;2103019;28;20034;-71
2023/05/26 02:04:37;;;;;;;14.75;10.45;;;11.80;99.90;;;;;;2095125;28;20133;-71
2023/05/26 02:05:38;;;;;;;15.85;10.95;;;11.80;99.90;;;;;;2086257;28;20029;-71
2023/05/26 02:06:39;;;;;;;14.88;10.20;;;11.70;99.90;;;;;;2093129;28;20162;-71
2023/05/26 02:07:44;;;;;;;15.35;10.60;;;11.70;99.90;;;;;;2092321;28;20074;-71
2023/05/26 02:08:45;;;;;;;19.38;11.13;;;11.70;99.90;;;;;;2086584;28;20086;-71
2023/05/26 02:09:46;;;;;;;18.58;11.05;;;11.70;99.90;;;;;;2094082;28;20150;-71
2023/05/26 02:10:47;;;;;;;18.05;10.93;;;11.70;99.90;;;;;;2102999;28;20495;-72
2023/05/26 02:11:47;;;;;;;14.82;10.05;;;11.70;99.90;;;;;;2101554;28;20706;-72
2023/05/26 02:12:48;;;;;;;16.55;10.85;;;11.70;99.90;;;;;;2095149;28;20025;-72
2023/05/26 02:13:49;;;;;;;15.50;10.68;;;11.70;99.90;;;;;;2103111;28;20111;-71
2023/05/26 02:14:50;;;;;;;14.32;10.27;;;11.70;99.90;;;;;;2112071;28;20023;-72
2023/05/26 02:15:50;;;;;;;16.67;10.73;;;11.70;99.90;;;;;;2112165;28;20554;-72
2023/05/26 02:16:52;;;;;;;16.58;11.07;;;11.70;99.90;;;;;;2097892;28;20570;-72
2023/05/26 02:17:54;;;;;;;16.15;11.07;;;11.70;99.90;;;;;;2097536;28;20028;-72
2023/05/26 02:18:55;;;;;;;16.77;11.07;;;11.70;99.90;;;;;;2094359;28;20029;-72
2023/05/26 02:19:57;;;;;;;18.00;11.27;;;11.70;99.90;;;;;;2103166;28;20051;-72
2023/05/26 02:20:57;;;;;;;19.08;11.05;;;11.70;99.90;;;;;;2094708;28;20035;-72
2023/05/26 02:21:58;;;;;;;18.02;11.45;;;11.70;99.90;;;;;;2084684;28;20059;-72
2023/05/26 02:22:58;;;;;;;16.70;11.20;;;11.70;99.90;;;;;;2103023;28;20024;-72
2023/05/26 02:23:59;;;;;;;19.55;11.65;;;11.70;99.90;;;;;;2103197;28;20024;-72
2023/05/26 02:25:00;;;;;;;17.55;11.30;;;11.70;99.90;;;;;;2103166;28;20024;-72
2023/05/26 02:26:00;;;;;;;18.73;11.70;;;11.60;99.90;;;;;;2103150;28;20031;-72
2023/05/26 02:27:01;;;;;;;15.55;11.27;;;11.60;99.90;;;;;;2095176;28;20070;-72
2023/05/26 02:28:01;;;;;;;15.98;11.75;;;11.60;99.90;;;;;;2094877;28;20499;-72
2023/05/26 02:29:02;;;;;;;20.35;12.18;;;11.60;99.90;;;;;;2094028;28;20028;-72
2023/05/26 02:30:03;;;;;;;17.02;11.98;;;11.60;99.90;;;;;;2094728;28;20020;-72
2023/05/26 02:31:04;;;;;;;17.17;11.85;;;11.60;99.90;;;;;;2103255;28;20043;-72
2023/05/26 02:32:05;;;;;;;16.80;11.60;;;11.60;99.90;;;;;;2101406;28;20058;-72
2023/05/26 02:33:08;;;;;;;18.55;12.50;;;11.50;99.90;;;;;;2103392;28;20028;-72
2023/05/26 02:34:10;;;;;;;17.05;11.32;;;11.50;99.90;;;;;;2112316;28;20048;-72
2023/05/26 02:35:10;;;;;;;16.25;11.50;;;11.50;99.90;;;;;;2112268;28;20087;-72
2023/05/26 02:36:11;;;;;;;20.10;12.32;;;11.50;99.90;;;;;;2094583;28;20166;-72
2023/05/26 02:37:12;;;;;;;17.58;11.50;;;11.50;99.90;;;;;;2085158;28;20631;-72
2023/05/26 02:38:15;;;;;;;17.75;12.43;;;11.50;99.90;;;;;;2102951;28;20107;-72
2023/05/26 02:39:16;;;;;;;17.83;12.10;;;11.50;99.90;;;;;;2103184;28;20391;-72
2023/05/26 02:40:16;;;;;;;16.75;12.30;;;11.50;99.90;;;;;;2094894;28;20013;-72
2023/05/26 02:41:17;;;;;;;18.45;12.30;;;11.50;99.90;;;;;;2093505;28;20542;-72
2023/05/26 02:42:17;;;;;;;16.95;11.55;;;11.50;99.90;;;;;;2103132;28;20066;-71
2023/05/26 02:43:20;;;;;;;15.73;11.35;;;11.50;99.90;;;;;;2094829;28;20530;-72
2023/05/26 02:44:20;;;;;;;16.30;11.60;;;11.50;99.90;;;;;;2094803;28;20073;-72
2023/05/26 02:45:22;;;;;;;17.30;11.95;;;11.50;99.90;;;;;;2094546;28;20071;-72
2023/05/26 02:46:22;;;;;;;18.80;12.20;;;11.50;99.90;;;;;;2100904;28;20557;-73
2023/05/26 02:47:23;;;;;;;17.02;11.07;;;11.50;99.90;;;;;;2096452;28;20064;-71
2023/05/26 02:48:26;;;;;;;18.08;11.80;;;11.50;99.90;;;;;;2104812;28;20047;-71
2023/05/26 02:49:26;;;;;;;17.10;11.63;;;11.50;99.90;;;;;;2113802;28;20036;-71
2023/05/26 02:50:27;;;;;;;17.08;11.93;;;11.50;99.90;;;;;;2113905;28;20031;-72
2023/05/26 02:51:28;;;;;;;17.05;11.85;;;11.50;99.90;;;;;;2111841;28;20119;-71
2023/05/26 02:52:28;;;;;;;15.38;11.27;;;11.60;99.90;;;;;;2104958;28;20543;-71
2023/05/26 02:53:29;;;;;;;17.33;11.30;;;11.60;99.90;;;;;;2096342;28;20523;-71
2023/05/26 02:54:30;;;;;;;16.15;11.23;;;11.60;99.90;;;;;;2095573;28;20020;-71
2023/05/26 02:55:30;;;;;;;15.95;11.10;;;11.60;99.90;;;;;;2096059;28;20570;-71
2023/05/26 02:56:31;;;;;;;18.67;11.50;;;11.60;99.90;;;;;;2098488;28;20365;-71
2023/05/26 02:57:31;;;;;;;17.60;11.75;;;11.60;99.90;;;;;;2116792;27;20583;-71
2023/05/26 02:58:32;;;;;;;14.60;11.35;;;11.70;99.90;;;;;;2113683;28;20591;-71
2023/05/26 02:59:33;;;;;;;16.60;11.70;;;11.70;99.90;;;;;;2104373;28;20097;-71
2023/05/26 03:00:33;;;;;;;18.73;11.90;;;11.80;99.90;;;;;;2104522;28;20733;-71
2023/05/26 03:01:34;;;;;;;19.33;12.15;;;11.70;99.90;;;;;;2111771;28;20031;-71
2023/05/26 03:02:34;;;;;;;19.38;12.40;;;11.70;99.90;;;;;;2104589;28;20040;-71
2023/05/26 03:03:35;;;;;;;17.73;12.02;;;11.80;99.90;;;;;;2104519;28;20028;-71
2023/05/26 03:04:36;;;;;;;19.92;11.85;;;11.80;99.90;;;;;;2104673;28;20105;-71
2023/05/26 03:05:37;;;;;;;17.10;11.35;;;11.70;99.90;;;;;;2104600;28;20514;-71
2023/05/26 03:06:38;;;;;;;20.52;12.40;;;11.80;99.90;;;;;;2108721;28;20028;-72
2023/05/26 03:07:38;;;;;;;17.58;11.73;;;11.80;99.90;;;;;;2108219;28;20510;-72
2023/05/26 03:08:39;;;;;;;18.08;11.80;;;11.90;99.90;;;;;;2102101;28;20028;-72
2023/05/26 03:09:40;;;;;;;16.63;11.77;;;11.90;99.90;;;;;;2104632;28;20834;-72
2023/05/26 03:10:41;;;;;;;19.02;11.50;;;11.90;99.90;;;;;;2104371;28;20556;-72
2023/05/26 03:11:43;;;;;;;15.68;11.65;;;11.90;99.90;;;;;;2094247;28;20024;-72
2023/05/26 03:12:43;;;;;;;18.00;11.50;;;11.90;99.90;;;;;;2104570;28;20059;-72
2023/05/26 03:13:44;;;;;;;16.75;11.98;;;11.90;99.90;;;;;;2104766;28;20024;-72
2023/05/26 03:14:45;;;;;;;17.20;11.77;;;12.00;99.90;;;;;;2096101;28;20032;-72
2023/05/26 03:15:47;;;;;;;17.52;12.48;;;12.00;99.90;;;;;;2095315;28;20106;-72
2023/05/26 03:16:52;;;;;;;18.50;11.50;;;12.00;99.90;;;;;;2091668;28;20041;-72
2023/05/26 03:17:53;;;;;;;17.15;11.85;;;12.00;99.90;;;;;;2094384;28;20028;-72
2023/05/26 03:18:54;;;;;;;18.48;12.40;;;12.00;99.90;;;;;;2096150;28;20035;-72
2023/05/26 03:19:55;;;;;;;15.93;11.52;;;12.00;99.90;;;;;;2096312;28;20020;-72
2023/05/26 03:20:58;;;;;;;16.08;11.38;;;12.00;99.90;;;;;;2096149;28;20079;-72
2023/05/26 03:21:59;;;;;;;17.63;11.85;;;12.00;99.90;;;;;;2096778;28;20024;-71
2023/05/26 03:23:00;;;;;;;16.10;11.82;;;12.00;99.90;;;;;;2103870;28;20110;-72
2023/05/26 03:24:00;;;;;;;16.65;11.75;;;12.00;99.90;;;;;;2096143;28;20175;-72
2023/05/26 03:25:01;;;;;;;17.67;11.32;;;12.00;99.90;;;;;;2096176;28;20419;-71
2023/05/26 03:26:10;;;;;;;19.17;11.52;;;12.00;99.90;;;;;;2096147;28;20032;-72
2023/05/26 03:27:11;;;;;;;16.38;10.63;;;12.00;99.90;;;;;;2086316;28;20021;-72
2023/05/26 03:28:12;;;;;;;19.02;11.93;;;12.00;99.90;;;;;;2104321;28;20107;-72
2023/05/26 03:29:13;;;;;;;19.95;12.05;;;12.10;99.90;;;;;;2096072;28;20033;-72
2023/05/26 03:30:14;;;;;;;18.30;12.15;;;12.10;99.90;;;;;;2104565;28;20079;-72
2023/05/26 03:31:17;;;;;;;19.13;12.50;;;12.10;99.90;;;;;;2104452;28;20024;-72
2023/05/26 03:32:18;;;;;;;17.60;12.32;;;12.10;99.90;;;;;;2112467;28;20102;-71
2023/05/26 03:33:18;;;;;;;18.60;11.73;;;12.10;99.90;;;;;;2113537;28;20028;-72
2023/05/26 03:34:21;;;;;;;15.40;11.07;;;12.10;99.90;;;;;;2104353;28;20024;-72
2023/05/26 03:35:21;;;;;;;18.92;11.65;;;12.10;99.90;;;;;;2104397;28;20194;-72
2023/05/26 03:36:22;;;;;;;16.92;11.65;;;12.20;99.90;;;;;;2102488;28;20054;-72
2023/05/26 03:37:24;;;;;;;19.38;12.55;;;12.20;99.90;;;;;;2096118;28;20039;-72
2023/05/26 03:38:26;;;;;;;17.70;11.68;;;12.20;99.90;;;;;;2095921;28;20092;-72
2023/05/26 03:39:26;;;;;;;17.80;11.55;;;12.20;99.90;;;;;;2104369;28;20059;-72
2023/05/26 03:40:31;;;;;;;17.55;11.70;;;12.20;99.90;;;;;;2104194;28;20111;-71
2023/05/26 03:41:33;;;;;;;15.68;11.40;;;12.20;99.90;;;;;;2094219;28;20020;-72
2023/05/26 03:42:34;;;;;;;15.23;11.43;;;12.20;99.90;;;;;;2092139;28;20036;-72
2023/05/26 03:43:34;;;;;;;15.63;11.30;;;12.20;99.90;;;;;;2095928;28;20510;-72
2023/05/26 03:44:36;;;;;;;18.70;11.63;;;12.20;99.90;;;;;;2095375;28;20025;-72
2023/05/26 03:45:36;;;;;;;18.55;12.15;;;12.20;99.90;;;;;;2096013;28;20025;-72
2023/05/26 03:46:37;;;;;;;15.57;11.40;;;12.20;99.90;;;;;;2102189;28;20117;-72
2023/05/26 03:47:39;;;;;;;15.30;11.63;;;12.20;99.90;;;;;;2104437;28;20024;-70
2023/05/26 03:48:40;;;;;;;20.17;11.77;;;12.20;99.90;;;;;;2104209;28;20028;-71
2023/05/26 03:49:41;;;;;;;17.33;11.65;;;12.20;99.90;;;;;;2104217;28;20096;-71
2023/05/26 03:50:43;;;;;;;17.58;12.60;;;12.20;99.90;;;;;;2104214;28;20483;-71
2023/05/26 03:51:44;;;;;;;18.73;12.07;;;12.20;99.90;;;;;;2094200;28;20092;-71
2023/05/26 03:52:45;;;;;;;17.67;11.85;;;12.20;99.90;;;;;;2104171;28;20027;-71
2023/05/26 03:53:46;;;;;;;16.00;11.57;;;12.20;99.90;;;;;;2113462;28;20034;-71
2023/05/26 03:54:48;;;;;;;17.10;12.18;;;12.20;99.90;;;;;;2104235;28;20032;-71
2023/05/26 03:55:48;;;;;;;18.02;12.00;;;12.20;99.90;;;;;;2095682;28;20141;-72
2023/05/26 03:56:49;;;;;;;15.07;11.20;;;12.20;99.90;;;;;;2098423;28;20095;-71
2023/05/26 03:57:50;;;;;;;18.02;11.90;;;12.30;99.90;;;;;;2112225;28;20031;-71
2023/05/26 03:58:50;;;;;;;17.92;12.00;;;12.30;99.90;;;;;;2113432;28;20023;-71
2023/05/26 03:59:51;;;;;;;16.60;11.63;;;12.30;99.90;;;;;;2103769;28;20255;-71
2023/05/26 04:00:51;;;;;;;17.38;12.13;;;12.30;99.90;;;;;;2095842;28;20039;-71
2023/05/26 04:01:52;;;;;;;18.15;12.18;;;12.30;99.90;;;;;;2104730;28;20055;-71
2023/05/26 04:02:53;;;;;;;16.17;11.98;;;12.30;99.90;;;;;;2098035;28;20044;-71
2023/05/26 04:03:53;;;;;;;18.67;11.75;;;12.30;99.90;;;;;;2104431;28;20024;-71
2023/05/26 04:04:55;;;;;;;20.10;12.15;;;12.30;99.90;;;;;;2104126;28;20020;-71
2023/05/26 04:05:59;;;;;;;17.23;11.90;;;12.30;99.90;;;;;;2103967;28;20043;-71
2023/05/26 04:07:00;;;;;;;19.17;13.15;;;12.40;99.90;;;;;;2093946;28;20087;-71
2023/05/26 04:08:01;;;;;;;20.75;12.68;;;12.40;99.90;;;;;;2082326;28;20155;-71
2023/05/26 04:09:03;;;;;;;19.77;13.00;;;12.30;99.90;;;;;;2079794;28;20080;-71
2023/05/26 04:10:05;;;;;;;16.55;12.18;;;12.40;99.90;;;;;;2088083;28;20163;-71
2023/05/26 04:11:05;;;;;;;18.05;12.30;;;12.40;99.90;;;;;;2092635;28;20029;-71
2023/05/26 04:12:06;;;;;;;17.58;12.13;;;12.40;99.90;;;;;;2100805;28;20387;-71
2023/05/26 04:13:07;;;;;;;18.33;11.30;;;12.40;99.90;;;;;;2104979;28;20039;-71
2023/05/26 04:14:07;;;;;;;16.90;11.63;;;12.50;99.90;;;;;;2095748;28;20101;-71
2023/05/26 04:15:09;;;;;;;17.98;12.02;;;12.50;99.90;;;;;;2095608;28;20039;-71
2023/05/26 04:16:10;;;;;;;20.27;13.02;;;12.50;99.90;;;;;;2095557;28;20077;-71
2023/05/26 04:17:10;;;;;;;20.27;12.63;;;12.50;99.90;;;;;;2100869;28;20791;-71
2023/05/26 04:18:11;;;;;;;19.13;11.80;;;12.50;99.90;;;;;;2095950;28;20035;-71
2023/05/26 04:19:11;;;;;;;19.13;12.68;;;12.50;99.90;;;;;;2103432;28;20024;-70
2023/05/26 04:20:12;;;;;;;16.65;11.85;;;12.60;99.90;;;;;;2113176;28;20497;-70
2023/05/26 04:21:12;;;;;;;20.60;12.15;;;12.60;99.90;;;;;;2104074;28;20642;-72
2023/05/26 04:22:14;;;;;;;18.90;12.07;;;12.60;99.90;;;;;;2094382;28;20035;-72
2023/05/26 04:23:15;;;;;;;17.75;11.45;;;12.70;99.90;;;;;;2112370;28;20101;-72
2023/05/26 04:24:16;;;;;;;18.00;12.15;;;12.70;99.90;;;;;;2103688;28;20032;-72
2023/05/26 04:25:16;;;;;;;16.60;11.65;;;12.70;99.90;;;;;;2095417;28;20040;-71
2023/05/26 04:26:33;;;;;;;19.38;12.68;;;12.70;99.90;;;;;;2093252;28;20032;-71
2023/05/26 04:27:46;;;;;;;19.25;11.90;;;12.70;99.90;;;;;;2102638;28;20040;-72
2023/05/26 04:29:10;;;;;;;20.00;12.15;;;12.80;99.90;;;;;;2104194;28;20032;-71
2023/05/26 04:30:19;;;;;;;19.70;11.70;;;12.80;99.90;;;;;;2095806;28;20567;-71
2023/05/26 04:31:43;;;;;;;17.35;11.88;;;12.80;99.90;;;;;;2109322;27;20046;-71
2023/05/26 04:32:52;;;;;;;17.85;12.73;;;12.80;99.90;;;;;;2107277;28;20024;-72
2023/05/26 04:34:11;;;;;;;19.17;12.25;;;12.80;99.90;;;;;;2098366;28;20040;-71
2023/05/26 04:35:30;;;;;;;17.80;12.13;;;12.90;99.90;;;;;;2104998;28;20115;-71
2023/05/26 04:36:32;;;;;;;18.83;11.43;;;12.90;99.90;;;;;;2103973;28;20086;-72
2023/05/26 04:37:33;;;;;;;16.08;12.15;;;12.90;99.90;;;;;;2112422;28;20093;-73
2023/05/26 04:38:34;;;;;;;19.15;12.55;;;13.00;99.90;;;;;;2096069;28;20028;-71
2023/05/26 04:39:35;;;;;;;18.17;12.05;;;13.00;99.90;;;;;;2095868;28;20025;-71
2023/05/26 04:40:35;;;;;;;18.20;12.05;;;13.00;99.90;;;;;;2095562;28;20372;-72
2023/05/26 04:41:36;;;;;;;19.15;11.57;;;13.10;99.90;;;;;;2096318;28;20032;-71
2023/05/26 04:42:37;;;;;;;19.42;11.98;;;13.10;99.90;;;;;;2103866;28;20032;-72
2023/05/26 04:43:38;;;;;;;17.15;11.45;;;13.10;99.90;;;;;;2103897;28;20028;-71
2023/05/26 04:44:40;;;;;;;18.25;12.02;;;13.10;99.90;;;;;;2112879;28;20586;-71
2023/05/26 04:45:43;;;;;;;18.98;12.65;;;13.10;99.90;;;;;;2103821;28;20028;-72
2023/05/26 04:46:45;;;;;;;16.20;11.35;;;13.10;99.90;;;;;;2098451;28;20021;-73
2023/05/26 04:47:46;;;;;;;21.27;13.23;;;13.10;99.90;;;;;;2102977;28;20545;-71
2023/05/26 04:48:47;;;;;;;19.90;12.10;;;13.20;99.90;;;;;;2095356;28;20047;-71
2023/05/26 04:49:47;;;;;;;16.13;11.60;;;13.20;99.90;;;;;;2103901;28;20028;-72
2023/05/26 04:50:49;;;;;;;18.40;11.68;;;13.20;99.90;;;;;;2103622;28;20024;-71
2023/05/26 04:51:54;;;;;;;18.85;12.27;;;13.20;99.90;;;;;;2097951;28;20052;-72
2023/05/26 04:52:55;;;;;;;16.38;11.98;;;13.20;99.90;;;;;;2087628;28;20033;-71
2023/05/26 04:53:55;;;;;;;16.55;12.07;;;13.20;99.90;;;;;;2094635;28;20510;-71
2023/05/26 04:54:56;;;;;;;17.77;12.10;;;13.20;99.90;;;;;;2103996;28;20043;-72
2023/05/26 04:56:00;;;;;;;17.30;12.07;;;13.30;99.90;;;;;;2103547;28;20039;-72
2023/05/26 04:57:00;;;;;;;17.63;11.88;;;13.30;99.90;;;;;;2099819;28;20063;-72
2023/05/26 04:58:16;;;;;;;20.67;12.85;;;13.30;99.90;;;;;;2095318;28;20470;-71
2023/05/26 04:59:17;;;;;;;20.00;12.02;;;13.40;99.90;;;;;;2094351;28;20044;-71
2023/05/26 05:00:19;;;;;;;17.00;11.77;;;13.40;99.90;;;;;;2095186;28;20024;-71
2023/05/26 05:01:24;;;;;;;18.75;12.63;;;13.40;99.90;;;;;;2100377;28;20031;-72
2023/05/26 05:02:49;;;;;;;19.13;12.40;;;13.40;99.90;;;;;;2099744;28;20062;-71
2023/05/26 05:04:07;;;;;;;17.33;11.88;;;13.50;99.90;;;;;;2099443;28;20074;-72
2023/05/26 05:05:11;;;;;;;16.52;11.75;;;13.60;99.90;;;;;;2097564;28;20048;-72
2023/05/26 05:06:12;;;;;;;17.33;11.65;;;13.60;99.90;;;;;;2097451;28;20051;-72
2023/05/26 05:07:12;;;;;;;20.40;12.23;;;13.60;99.90;;;;;;2093240;28;20031;-72
2023/05/26 05:08:14;;;;;;;15.93;11.88;;;13.70;99.90;;;;;;2090687;28;20491;-72
2023/05/26 05:09:14;;;;;;;20.30;12.80;;;13.70;99.90;;;;;;2102971;28;20327;-72
2023/05/26 05:10:15;;;;;;;16.38;11.15;;;13.70;99.90;;;;;;2095191;28;20369;-72
2023/05/26 05:11:16;;;;;;;17.92;11.35;;;13.80;99.90;;;;;;2094998;28;20060;-71
2023/05/26 05:12:17;;;;;;;21.55;13.02;;;13.80;99.90;;;;;;2079186;28;20083;-71
2023/05/26 05:13:18;;;;;;;20.17;12.30;;;13.80;99.90;;;;;;2086336;28;20025;-71
2023/05/26 05:14:19;;;;;;;18.83;11.98;;;13.90;99.90;;;;;;2095418;28;20094;-72
2023/05/26 05:15:22;;;;;;;18.05;11.40;;;14.00;99.90;;;;;;2095072;28;20024;-72
2023/05/26 05:16:23;;;;;;;16.65;10.95;;;14.10;99.90;;;;;;2102438;28;20402;-71
2023/05/26 05:17:24;;;;;;;16.60;10.90;;;14.20;99.90;;;;;;2099416;28;20040;-72
2023/05/26 05:18:24;;;;;;;16.67;11.23;;;14.40;99.90;;;;;;2095275;28;20032;-71
2023/05/26 05:19:26;;;;;;;17.83;11.90;;;14.50;99.90;;;;;;2094963;28;20800;-72
2023/05/26 05:20:28;;;;;;;20.13;11.63;;;14.60;99.90;;;;;;2095345;28;20412;-71